Hamburg, Illinois
Current Conditions -  °F | °C
As of 6:15 AM on Monday 22 Dec 2014 (Local Time) from KSET Reporting Station
Light Rain Light Rain  
Wind Chill: 30°   Ceiling: 2700
Heat Index: 38°   Visibility: 4mi
Dew Point: 36°   Wind: 13mph
Humidity: 93%   Direction: 100°E
Pressure: 29.79"   Gusts: NA
Location:  39.23°N, 90.72°W
Report Text: KSET 221215Z AUTO 10011KT 4SM -RA BR OVC027 03/02 A2979 RMK AO2 P0003 T00330022
Loading
Personal Weather Stations






























Interactive Weather Map New forecast layout! Learn more

10-Day Weather Forecast

Advertisements
Track Severe Weather on mobile